createdAt,value
2019-05-03T00:02:05.923Z,0
2019-05-03T00:03:28.293Z,0
2019-05-03T00:06:28.198Z,0
2019-05-03T00:09:28.291Z,0
2019-05-03T00:12:28.266Z,0
2019-05-03T00:16:38.653Z,0
2019-05-03T00:18:28.007Z,0
2019-05-03T00:21:28.536Z,0
2019-05-03T00:24:29.101Z,0
2019-05-03T00:27:28.458Z,0
2019-05-03T00:30:28.468Z,0
2019-05-03T00:33:28.555Z,0
2019-05-03T00:36:34.041Z,0
2019-05-03T00:39:33.845Z,0
2019-05-03T00:42:28.322Z,0
2019-05-03T00:45:28.407Z,0
2019-05-03T00:48:28.865Z,0
2019-05-03T00:51:27.943Z,0
2019-05-03T00:54:28.092Z,0
2019-05-03T00:57:27.875Z,0
2019-05-03T01:00:29.136Z,0
2019-05-03T01:03:28.942Z,0
2019-05-03T01:06:29.546Z,0
2019-05-03T01:09:31.597Z,0
2019-05-03T01:25:02.620Z,0
2019-05-03T01:30:28.246Z,0
2019-05-03T01:36:28.335Z,0
2019-05-03T01:39:28.352Z,0
2019-05-03T01:42:24.094Z,0
2019-05-03T01:45:28.636Z,0
2019-05-03T01:48:44.129Z,0
2019-05-03T01:52:53.223Z,0
2019-05-03T01:54:27.985Z,0
2019-05-03T01:57:32.430Z,0
2019-05-03T02:00:55.281Z,0
2019-05-03T02:06:24.163Z,0
2019-05-03T02:09:29.449Z,0
2019-05-03T02:12:28.744Z,0
2019-05-03T02:15:28.554Z,0
2019-05-03T02:18:24.135Z,0
2019-05-03T02:33:28.184Z,0
2019-05-03T02:36:28.265Z,0
2019-05-03T02:39:27.978Z,0
2019-05-03T02:42:29.342Z,0
2019-05-03T02:45:30.395Z,0
2019-05-03T02:57:28.283Z,0
2019-05-03T03:06:30.754Z,0
2019-05-03T03:12:30.517Z,0
2019-05-03T03:18:36.373Z,0
2019-05-03T03:21:36.102Z,0
2019-05-03T03:24:36.004Z,0
2019-05-03T03:27:36.133Z,0
2019-05-03T03:32:51.891Z,0
2019-05-03T03:33:28.107Z,0
2019-05-03T03:37:04.981Z,0
2019-05-03T03:45:30.342Z,1
2019-05-03T03:48:30.283Z,0
2019-05-03T03:51:31.425Z,0
2019-05-03T03:54:28.789Z,3
2019-05-03T03:57:31.417Z,0
2019-05-03T04:00:29.633Z,0
2019-05-03T04:03:29.306Z,7
2019-05-03T04:06:46.534Z,8
2019-05-03T04:09:29.714Z,8
2019-05-03T04:12:29.957Z,10
2019-05-03T04:15:47.389Z,0
2019-05-03T04:18:36.113Z,14
2019-05-03T04:21:29.562Z,0
2019-05-03T04:24:30.817Z,0
2019-05-03T04:27:36.578Z,1
2019-05-03T04:30:30.180Z,4
2019-05-03T04:33:29.354Z,7
2019-05-03T04:36:29.278Z,10
2019-05-03T04:39:35.799Z,32
2019-05-03T04:42:29.875Z,16
2019-05-03T04:45:29.856Z,20
2019-05-03T04:48:29.348Z,45
2019-05-03T04:51:29.913Z,46
2019-05-03T04:54:38.627Z,52
2019-05-03T04:57:45.115Z,55
2019-05-03T05:03:28.439Z,0
2019-05-03T05:06:29.226Z,0
2019-05-03T05:09:28.979Z,68
2019-05-03T05:12:29.556Z,0
2019-05-03T05:15:29.294Z,57
2019-05-03T05:18:36.435Z,0
2019-05-03T05:21:33.080Z,77
2019-05-03T05:24:28.992Z,78
2019-05-03T05:27:48.834Z,94
2019-05-03T05:30:28.547Z,97
2019-05-03T05:33:29.001Z,94
2019-05-03T05:36:28.602Z,99
2019-05-03T05:39:30.256Z,119
2019-05-03T05:42:28.437Z,124
2019-05-03T05:45:29.404Z,93
2019-05-03T05:48:35.220Z,70
2019-05-03T05:51:29.356Z,91
2019-05-03T05:54:28.626Z,77
2019-05-03T05:57:25.670Z,86
2019-05-03T06:00:35.817Z,104
2019-05-03T06:03:28.617Z,98
2019-05-03T06:06:38.359Z,120
2019-05-03T06:12:36.318Z,134
2019-05-03T06:15:45.332Z,140
2019-05-03T06:18:35.367Z,152
2019-05-03T06:24:37.618Z,146
2019-05-03T06:27:34.708Z,146
2019-05-03T06:30:24.883Z,167
2019-05-03T06:33:28.607Z,211
2019-05-03T06:36:36.677Z,453
2019-05-03T06:39:28.764Z,590
2019-05-03T06:45:25.124Z,295
2019-05-03T06:48:32.048Z,664
2019-05-03T06:54:30.089Z,386
2019-05-03T06:57:28.940Z,101
2019-05-03T07:00:24.845Z,93
2019-05-03T07:04:06.807Z,73
2019-05-03T07:09:35.449Z,83
2019-05-03T07:13:08.933Z,601
2019-05-03T07:15:28.904Z,250
2019-05-03T07:21:28.701Z,234
2019-05-03T07:24:28.118Z,234
2019-05-03T07:30:28.946Z,242
2019-05-03T07:33:25.441Z,563
2019-05-03T07:36:57.960Z,247
2019-05-03T07:39:28.564Z,315
2019-05-03T07:42:58.162Z,321
2019-05-03T07:48:28.943Z,292
2019-05-03T07:51:28.485Z,317
2019-05-03T07:54:29.241Z,387
2019-05-03T07:57:37.599Z,550
2019-05-03T08:00:29.962Z,569
2019-05-03T08:09:28.532Z,176
2019-05-03T08:12:28.854Z,212
2019-05-03T08:15:28.869Z,203
2019-05-03T08:18:28.943Z,590
2019-05-03T08:21:28.501Z,709
2019-05-03T08:24:29.179Z,789
2019-05-03T08:27:28.856Z,824
2019-05-03T08:30:39.740Z,411
2019-05-03T08:34:07.872Z,267
2019-05-03T08:36:29.268Z,217
2019-05-03T08:39:29.642Z,242
2019-05-03T08:42:30.269Z,407
2019-05-03T08:45:28.767Z,453
2019-05-03T08:51:29.011Z,455
2019-05-03T08:54:28.977Z,547
2019-05-03T08:57:28.564Z,547
2019-05-03T09:00:30.234Z,511
2019-05-03T09:03:28.810Z,538
2019-05-03T09:06:29.132Z,593
2019-05-03T09:09:37.726Z,1015
2019-05-03T09:13:15.671Z,518
2019-05-03T09:15:29.391Z,601
2019-05-03T09:18:30.940Z,904
2019-05-03T09:21:28.581Z,1162
2019-05-03T09:24:28.548Z,1284
2019-05-03T09:27:29.006Z,1385
2019-05-03T09:30:28.698Z,1511
2019-05-03T09:33:28.651Z,1211
2019-05-03T09:36:28.492Z,1169
2019-05-03T09:39:29.054Z,1314
2019-05-03T09:42:28.942Z,1011
2019-05-03T09:45:28.791Z,792
2019-05-03T09:48:28.693Z,773
2019-05-03T09:51:28.632Z,337
2019-05-03T09:54:35.540Z,484
2019-05-03T10:00:29.515Z,1469
2019-05-03T10:03:36.554Z,1735
2019-05-03T10:06:35.941Z,707
2019-05-03T10:09:29.012Z,1234
2019-05-03T10:12:29.524Z,460
2019-05-03T10:15:39.636Z,406
2019-05-03T10:18:28.414Z,1596
2019-05-03T10:21:31.288Z,1468
2019-05-03T10:24:29.086Z,1474
2019-05-03T10:27:29.092Z,992
2019-05-03T10:30:31.723Z,1425
2019-05-03T10:36:28.837Z,394
2019-05-03T10:39:31.596Z,327
2019-05-03T10:42:57.674Z,1165
2019-05-03T10:48:28.393Z,611
2019-05-03T10:52:05.819Z,408
2019-05-03T10:54:28.606Z,439
2019-05-03T10:57:38.098Z,182
2019-05-03T11:00:59.168Z,413
2019-05-03T11:03:28.803Z,603
2019-05-03T11:06:28.556Z,492
2019-05-03T11:09:28.760Z,553
2019-05-03T11:12:28.600Z,577
2019-05-03T11:15:28.559Z,1166
2019-05-03T11:18:28.835Z,533
2019-05-03T11:21:42.178Z,1716
2019-05-03T11:24:29.256Z,657
2019-05-03T11:27:37.334Z,738
2019-05-03T11:30:29.161Z,650
2019-05-03T11:33:45.697Z,462
2019-05-03T11:36:38.122Z,553
2019-05-03T11:39:28.823Z,546
2019-05-03T11:42:32.081Z,561
2019-05-03T11:45:29.137Z,331
2019-05-03T11:48:28.641Z,296
2019-05-03T11:51:28.573Z,250
2019-05-03T11:54:29.992Z,355
2019-05-03T11:57:30.753Z,430
2019-05-03T12:00:34.788Z,425
2019-05-03T12:03:37.777Z,416
2019-05-03T12:06:30.089Z,486
2019-05-03T12:09:28.765Z,464
2019-05-03T12:12:35.325Z,454
2019-05-03T12:15:29.231Z,359
2019-05-03T12:18:44.836Z,370
2019-05-03T12:21:33.639Z,366
2019-05-03T12:24:30.786Z,392
2019-05-03T12:27:29.140Z,383
2019-05-03T12:30:28.741Z,392
2019-05-03T12:33:28.939Z,314
2019-05-03T12:36:28.780Z,338
2019-05-03T12:39:42.738Z,329
2019-05-03T12:42:28.634Z,337
2019-05-03T12:45:28.749Z,312
2019-05-03T12:48:28.849Z,317
2019-05-03T12:51:29.290Z,357
2019-05-03T12:54:35.607Z,412
2019-05-03T12:57:28.724Z,369
2019-05-03T13:02:44.657Z,291
2019-05-03T13:03:32.985Z,260
2019-05-03T13:06:28.688Z,328
2019-05-03T13:09:29.367Z,351
2019-05-03T13:12:30.588Z,292
2019-05-03T13:15:35.234Z,297
2019-05-03T13:18:29.018Z,316
2019-05-03T13:21:28.618Z,267
2019-05-03T13:24:38.614Z,263
2019-05-03T13:27:28.419Z,266
2019-05-03T13:30:29.427Z,292
2019-05-03T13:33:29.099Z,271
2019-05-03T13:36:28.693Z,243
2019-05-03T13:39:28.659Z,227
2019-05-03T13:42:28.429Z,242
2019-05-03T13:45:28.969Z,246
2019-05-03T13:48:45.253Z,243
2019-05-03T13:51:28.714Z,225
2019-05-03T13:54:28.591Z,220
2019-05-03T13:57:28.882Z,243
2019-05-03T14:00:28.895Z,238
2019-05-03T14:03:28.701Z,253
2019-05-03T14:06:28.630Z,181
2019-05-03T14:09:28.766Z,177
2019-05-03T14:12:28.918Z,251
2019-05-03T14:15:28.882Z,236
2019-05-03T14:18:28.887Z,174
2019-05-03T14:21:36.009Z,206
2019-05-03T14:24:29.031Z,184
2019-05-03T14:27:25.408Z,173
2019-05-03T14:30:29.070Z,196
2019-05-03T14:33:28.562Z,202
2019-05-03T14:36:29.253Z,197
2019-05-03T14:39:28.742Z,190
2019-05-03T14:42:28.459Z,191
2019-05-03T14:45:28.870Z,188
2019-05-03T14:48:28.527Z,166
2019-05-03T14:54:34.423Z,159
2019-05-03T14:57:35.133Z,178
2019-05-03T15:00:37.513Z,156
2019-05-03T15:03:29.968Z,153
2019-05-03T15:06:25.027Z,172
2019-05-03T15:09:32.630Z,146
2019-05-03T15:12:28.902Z,160
2019-05-03T15:15:28.999Z,151
2019-05-03T15:18:28.784Z,138
2019-05-03T15:21:28.536Z,158
2019-05-03T15:27:28.734Z,133
2019-05-03T15:30:28.764Z,146
2019-05-03T15:33:28.468Z,137
2019-05-03T15:36:28.921Z,136
2019-05-03T15:39:28.718Z,134
2019-05-03T15:42:35.174Z,128
2019-05-03T15:46:31.120Z,120
2019-05-03T15:48:31.842Z,118
2019-05-03T15:51:28.490Z,115
2019-05-03T15:54:28.532Z,115
2019-05-03T15:57:29.134Z,117
2019-05-03T16:00:28.663Z,133
2019-05-03T16:03:28.599Z,131
2019-05-03T16:06:28.820Z,128
2019-05-03T16:09:28.492Z,130
2019-05-03T16:12:28.822Z,125
2019-05-03T16:15:28.667Z,102
2019-05-03T16:18:28.408Z,99
2019-05-03T16:21:28.958Z,94
2019-05-03T16:24:29.239Z,88
2019-05-03T16:27:55.401Z,107
2019-05-03T16:31:05.123Z,91
2019-05-03T16:33:40.955Z,112
2019-05-03T16:36:28.742Z,93
2019-05-03T16:39:28.496Z,119
2019-05-03T16:42:28.781Z,108
2019-05-03T16:45:30.432Z,103
2019-05-03T16:48:31.717Z,101
2019-05-03T16:51:30.510Z,113
2019-05-03T16:54:30.853Z,105
2019-05-03T16:57:30.671Z,79
2019-05-03T17:00:31.410Z,73
2019-05-03T17:03:39.319Z,68
2019-05-03T17:10:32.605Z,79
2019-05-03T17:12:30.744Z,67
2019-05-03T17:15:28.577Z,57
2019-05-03T17:18:30.438Z,57
2019-05-03T17:21:29.712Z,33
2019-05-03T17:24:28.784Z,24
2019-05-03T17:27:28.806Z,25
2019-05-03T17:30:35.157Z,46
2019-05-03T17:33:25.358Z,46
2019-05-03T17:36:28.307Z,20
2019-05-03T17:39:57.364Z,22
2019-05-03T17:43:06.942Z,16
2019-05-03T17:45:35.114Z,37
2019-05-03T17:48:28.810Z,15
2019-05-03T17:52:48.163Z,33
2019-05-03T17:55:12.151Z,33
2019-05-03T17:57:35.150Z,32
2019-05-03T18:00:45.913Z,29
2019-05-03T18:03:39.819Z,8
2019-05-03T18:06:31.878Z,5
2019-05-03T18:09:34.441Z,24
2019-05-03T18:12:28.823Z,23
2019-05-03T18:15:30.206Z,1
2019-05-03T18:18:29.231Z,0
2019-05-03T18:21:28.841Z,17
2019-05-03T18:24:38.156Z,0
2019-05-03T18:27:29.578Z,0
2019-05-03T18:30:29.110Z,0
2019-05-03T18:33:28.881Z,0
2019-05-03T18:36:28.644Z,8
2019-05-03T18:39:28.755Z,7
2019-05-03T18:45:46.759Z,5
2019-05-03T18:48:35.103Z,0
2019-05-03T18:51:28.771Z,3
2019-05-03T18:54:28.899Z,0
2019-05-03T18:57:28.952Z,0
2019-05-03T19:00:29.980Z,1
2019-05-03T19:03:28.969Z,1
2019-05-03T19:06:28.974Z,0
2019-05-03T19:09:55.431Z,0
2019-05-03T19:12:35.703Z,0
2019-05-03T19:15:28.494Z,0
2019-05-03T19:18:31.699Z,0
2019-05-03T19:21:29.191Z,0
2019-05-03T19:24:28.973Z,0
2019-05-03T19:27:34.661Z,0
2019-05-03T19:30:29.023Z,0
2019-05-03T19:33:28.667Z,0
2019-05-03T19:36:28.592Z,0
2019-05-03T19:39:28.442Z,0
2019-05-03T19:42:29.042Z,0
2019-05-03T19:45:28.964Z,0
2019-05-03T19:48:25.590Z,0
2019-05-03T19:51:29.015Z,0
2019-05-03T19:54:28.989Z,0
2019-05-03T19:57:35.011Z,0
2019-05-03T20:00:47.959Z,0
2019-05-03T20:03:56.274Z,0
2019-05-03T20:06:51.585Z,0
2019-05-03T20:09:28.891Z,0
2019-05-03T20:12:28.816Z,0
2019-05-03T20:15:28.685Z,0
2019-05-03T20:18:31.247Z,0
2019-05-03T20:21:29.053Z,0
2019-05-03T20:24:30.857Z,0
2019-05-03T20:27:37.718Z,0
2019-05-03T20:30:28.690Z,0
2019-05-03T20:33:28.703Z,0
2019-05-03T20:36:28.453Z,0
2019-05-03T20:39:28.938Z,0
2019-05-03T20:43:10.014Z,0
2019-05-03T20:45:41.789Z,0
2019-05-03T20:48:28.985Z,0
2019-05-03T20:51:28.676Z,0
2019-05-03T20:54:28.604Z,0
2019-05-03T20:57:28.252Z,0
2019-05-03T21:00:30.117Z,0
2019-05-03T21:03:28.995Z,0
2019-05-03T21:06:35.362Z,0
2019-05-03T21:09:28.820Z,0
2019-05-03T21:12:28.465Z,0
2019-05-03T21:15:40.518Z,0
2019-05-03T21:18:37.916Z,0
2019-05-03T21:21:36.291Z,0
2019-05-03T21:24:49.538Z,0
2019-05-03T21:27:28.575Z,0
2019-05-03T21:30:28.431Z,0
2019-05-03T21:33:28.945Z,0
2019-05-03T21:36:28.657Z,0
2019-05-03T21:39:28.570Z,0
2019-05-03T21:42:28.291Z,0
2019-05-03T21:45:36.884Z,0
2019-05-03T21:48:32.409Z,0
2019-05-03T21:51:28.975Z,0
2019-05-03T21:54:28.660Z,0
2019-05-03T21:57:29.783Z,0
2019-05-03T22:00:45.399Z,0
2019-05-03T22:03:28.201Z,0
2019-05-03T22:06:30.324Z,0
2019-05-03T22:09:28.851Z,0
2019-05-03T22:12:28.491Z,0
2019-05-03T22:15:42.342Z,0
2019-05-03T22:18:30.585Z,0
2019-05-03T22:21:38.476Z,0
2019-05-03T22:24:36.983Z,0
2019-05-03T22:27:29.530Z,0
2019-05-03T22:30:29.220Z,0
2019-05-03T22:33:28.979Z,0
2019-05-03T22:36:28.720Z,0
2019-05-03T22:39:28.998Z,0
2019-05-03T22:42:28.638Z,0
2019-05-03T22:45:28.301Z,0
2019-05-03T22:48:28.836Z,0
2019-05-03T22:51:28.536Z,0
2019-05-03T22:54:28.975Z,0
2019-05-03T23:00:28.515Z,0
2019-05-03T23:03:30.414Z,0
2019-05-03T23:06:35.882Z,0
2019-05-03T23:09:29.308Z,0
2019-05-03T23:12:29.087Z,0
2019-05-03T23:15:29.123Z,0
2019-05-03T23:18:35.076Z,0
2019-05-03T23:21:44.023Z,0
2019-05-03T23:24:28.809Z,0
2019-05-03T23:27:28.846Z,0
2019-05-03T23:30:28.750Z,0
2019-05-03T23:33:28.486Z,0
2019-05-03T23:36:33.469Z,0
2019-05-03T23:39:29.068Z,0
2019-05-03T23:42:28.991Z,0
2019-05-03T23:45:29.304Z,0
2019-05-03T23:48:29.092Z,0
2019-05-03T23:52:05.196Z,0
2019-05-03T23:54:28.857Z,0
2019-05-03T23:57:28.496Z,0
